createdAt,value
2019-06-26T00:00:58.155Z,0.00
2019-06-26T00:01:58.134Z,0.00
2019-06-26T00:02:58.168Z,0.00
2019-06-26T00:03:58.149Z,0.00
2019-06-26T00:04:58.094Z,0.00
2019-06-26T00:05:58.082Z,0.00
2019-06-26T00:06:58.112Z,0.00
2019-06-26T00:07:58.060Z,0.00
2019-06-26T00:08:58.053Z,0.00
2019-06-26T00:09:58.039Z,0.00
2019-06-26T00:10:58.034Z,0.00
2019-06-26T00:11:58.045Z,0.00
2019-06-26T00:12:58.010Z,0.00
2019-06-26T00:13:58.010Z,0.00
2019-06-26T00:14:57.988Z,0.00
2019-06-26T00:15:57.981Z,0.00
2019-06-26T00:16:57.969Z,0.00
2019-06-26T00:17:57.956Z,0.00
2019-06-26T00:18:57.945Z,0.00
2019-06-26T00:19:57.935Z,0.00
2019-06-26T00:20:57.933Z,0.00
2019-06-26T00:21:57.914Z,0.00
2019-06-26T00:22:57.921Z,0.00
2019-06-26T00:23:57.894Z,0.00
2019-06-26T00:24:57.892Z,0.00
2019-06-26T00:25:57.874Z,0.00
2019-06-26T00:26:57.857Z,0.00
2019-06-26T00:27:57.856Z,0.00
2019-06-26T00:28:57.884Z,0.00
2019-06-26T00:29:57.842Z,0.00
2019-06-26T00:30:57.827Z,0.00
2019-06-26T00:31:57.813Z,0.00
2019-06-26T00:32:57.800Z,0.00
2019-06-26T00:33:57.793Z,0.00
2019-06-26T00:34:57.779Z,0.00
2019-06-26T00:35:57.766Z,0.00
2019-06-26T00:36:57.754Z,0.00
2019-06-26T00:37:57.750Z,0.00
2019-06-26T00:38:57.740Z,0.00
2019-06-26T00:39:57.727Z,0.00
2019-06-26T00:40:57.708Z,0.00
2019-06-26T00:41:57.699Z,0.00
2019-06-26T00:42:57.693Z,0.00
2019-06-26T00:43:57.688Z,0.00
2019-06-26T00:44:57.671Z,0.00
2019-06-26T00:45:57.663Z,0.00
2019-06-26T00:46:57.656Z,0.00
2019-06-26T00:47:57.642Z,0.00
2019-06-26T00:48:57.633Z,0.00
2019-06-26T00:49:57.620Z,0.00
2019-06-26T00:50:57.604Z,0.00
2019-06-26T00:51:57.616Z,0.00
2019-06-26T00:52:57.613Z,0.00
2019-06-26T00:53:57.578Z,0.00
2019-06-26T00:54:57.614Z,0.00
2019-06-26T00:55:57.555Z,0.00
2019-06-26T00:56:57.545Z,0.00
2019-06-26T00:57:57.542Z,0.00
2019-06-26T00:58:57.523Z,0.00
2019-06-26T00:59:57.515Z,0.00
2019-06-26T01:00:57.517Z,0.00
2019-06-26T01:01:57.494Z,0.00
2019-06-26T01:02:57.482Z,0.00
2019-06-26T01:03:57.480Z,0.00
2019-06-26T01:04:57.544Z,0.00
2019-06-26T01:05:57.448Z,0.00
2019-06-26T01:06:57.437Z,0.00
2019-06-26T01:07:57.430Z,0.00
2019-06-26T01:08:57.415Z,0.00
2019-06-26T01:09:57.401Z,0.00
2019-06-26T01:10:57.419Z,0.00
2019-06-26T01:11:57.390Z,0.00
2019-06-26T01:12:57.377Z,0.00
2019-06-26T01:13:58.443Z,0.00
2019-06-26T01:14:57.349Z,0.00
2019-06-26T01:15:57.345Z,0.00
2019-06-26T01:16:57.330Z,0.00
2019-06-26T01:17:57.324Z,0.00
2019-06-26T01:18:57.310Z,0.00
2019-06-26T01:19:57.298Z,0.00
2019-06-26T01:20:57.289Z,0.00
2019-06-26T01:21:57.278Z,0.00
2019-06-26T01:22:57.268Z,0.00
2019-06-26T01:23:57.263Z,0.00
2019-06-26T01:24:57.249Z,0.00
2019-06-26T01:25:57.248Z,0.00
2019-06-26T01:26:57.224Z,0.00
2019-06-26T01:27:57.215Z,0.00
2019-06-26T01:28:57.213Z,0.00
2019-06-26T01:29:57.202Z,0.00
2019-06-26T01:30:57.181Z,0.00
2019-06-26T01:31:57.173Z,0.00
2019-06-26T01:32:57.163Z,0.00
2019-06-26T01:33:57.150Z,0.00
2019-06-26T01:34:57.140Z,0.00
2019-06-26T01:35:57.129Z,0.00
2019-06-26T01:36:57.117Z,0.00
2019-06-26T01:37:57.107Z,0.00
2019-06-26T01:38:57.097Z,0.00
2019-06-26T01:39:57.085Z,0.00
2019-06-26T01:40:57.077Z,0.00
2019-06-26T01:41:57.066Z,0.00
2019-06-26T01:42:57.055Z,0.00
2019-06-26T01:43:57.045Z,0.00
2019-06-26T01:44:57.031Z,0.00
2019-06-26T01:45:57.022Z,0.00
2019-06-26T01:46:57.009Z,0.00
2019-06-26T01:47:57.000Z,0.00
2019-06-26T01:48:56.986Z,0.00
2019-06-26T01:49:56.991Z,0.00
2019-06-26T01:50:56.970Z,0.00
2019-06-26T01:51:56.976Z,0.00
2019-06-26T01:52:56.951Z,0.00
2019-06-26T01:53:56.939Z,0.00
2019-06-26T01:54:56.924Z,0.00
2019-06-26T01:55:56.912Z,0.00
2019-06-26T01:56:56.903Z,0.00
2019-06-26T01:57:56.898Z,0.00
2019-06-26T01:58:56.883Z,0.00
2019-06-26T01:59:56.876Z,0.00
2019-06-26T02:00:56.861Z,0.00
2019-06-26T02:01:56.852Z,0.00
2019-06-26T02:02:56.839Z,0.00
2019-06-26T02:03:56.849Z,0.00
2019-06-26T02:04:56.828Z,0.00
2019-06-26T02:05:56.805Z,0.00
2019-06-26T02:06:56.812Z,0.00
2019-06-26T02:07:56.787Z,0.00
2019-06-26T02:08:56.775Z,0.00
2019-06-26T02:09:56.764Z,0.00
2019-06-26T02:10:56.754Z,0.00
2019-06-26T02:12:00.285Z,0.00
2019-06-26T02:12:56.730Z,0.00
2019-06-26T02:13:56.719Z,0.00
2019-06-26T02:14:56.712Z,0.00
2019-06-26T02:15:56.702Z,0.00
2019-06-26T02:16:56.725Z,0.00
2019-06-26T02:17:56.672Z,0.00
2019-06-26T02:18:56.665Z,0.00
2019-06-26T02:19:56.657Z,0.00
2019-06-26T02:20:56.648Z,0.00
2019-06-26T02:21:56.649Z,0.00
2019-06-26T02:22:56.620Z,0.00
2019-06-26T02:23:56.679Z,0.00
2019-06-26T02:24:56.619Z,0.00
2019-06-26T02:25:56.587Z,0.00
2019-06-26T02:26:56.581Z,0.00
2019-06-26T02:27:56.574Z,0.00
2019-06-26T02:28:56.555Z,0.00
2019-06-26T02:29:56.551Z,0.00
2019-06-26T02:30:56.534Z,0.00
2019-06-26T02:31:56.529Z,0.00
2019-06-26T02:32:56.511Z,0.00
2019-06-26T02:33:56.504Z,0.00
2019-06-26T02:34:56.494Z,0.00
2019-06-26T02:35:56.475Z,0.00
2019-06-26T02:36:56.467Z,0.00
2019-06-26T02:37:56.458Z,0.00
2019-06-26T02:38:56.491Z,0.00
2019-06-26T02:39:56.439Z,0.00
2019-06-26T02:40:56.421Z,0.00
2019-06-26T02:41:56.416Z,0.00
2019-06-26T02:42:56.510Z,0.00
2019-06-26T02:43:56.389Z,0.00
2019-06-26T02:44:56.374Z,0.00
2019-06-26T02:45:56.366Z,0.00
2019-06-26T02:47:13.595Z,0.00
2019-06-26T02:47:56.344Z,0.00
2019-06-26T02:48:56.337Z,0.00
2019-06-26T02:49:56.327Z,4.00
2019-06-26T02:50:56.308Z,4.00
2019-06-26T02:51:56.304Z,4.00
2019-06-26T02:52:56.294Z,0.00
2019-06-26T02:53:56.288Z,4.00
2019-06-26T02:54:56.272Z,4.00
2019-06-26T02:55:56.294Z,4.00
2019-06-26T02:56:56.251Z,4.00
2019-06-26T02:57:56.237Z,4.00
2019-06-26T02:58:56.269Z,8.00
2019-06-26T02:59:56.223Z,4.00
2019-06-26T03:00:56.214Z,8.00
2019-06-26T03:01:56.191Z,8.00
2019-06-26T03:02:56.180Z,8.00
2019-06-26T03:03:56.244Z,12.00
2019-06-26T03:04:56.161Z,8.00
2019-06-26T03:05:56.150Z,12.00
2019-06-26T03:06:56.139Z,12.00
2019-06-26T03:07:56.128Z,12.00
2019-06-26T03:08:56.127Z,16.00
2019-06-26T03:09:56.105Z,16.00
2019-06-26T03:10:56.090Z,20.00
2019-06-26T03:11:56.080Z,20.00
2019-06-26T03:12:56.070Z,24.00
2019-06-26T03:13:56.058Z,28.00
2019-06-26T03:15:08.149Z,28.00
2019-06-26T03:15:56.035Z,28.00
2019-06-26T03:16:56.024Z,32.00
2019-06-26T03:17:56.059Z,36.00
2019-06-26T03:18:56.081Z,40.00
2019-06-26T03:19:55.989Z,44.00
2019-06-26T03:20:55.977Z,48.00
2019-06-26T03:21:55.970Z,48.00
2019-06-26T03:22:55.987Z,52.00
2019-06-26T03:23:55.952Z,56.00
2019-06-26T03:24:55.941Z,60.00
2019-06-26T03:25:55.931Z,68.00
2019-06-26T03:26:55.945Z,72.00
2019-06-26T03:27:55.910Z,76.00
2019-06-26T03:28:55.903Z,80.00
2019-06-26T03:29:55.884Z,80.00
2019-06-26T03:30:55.876Z,88.00
2019-06-26T03:31:55.862Z,92.00
2019-06-26T03:32:55.854Z,96.00
2019-06-26T03:33:55.838Z,100.00
2019-06-26T03:34:55.829Z,104.00
2019-06-26T03:35:55.826Z,112.00
2019-06-26T03:36:55.807Z,116.00
2019-06-26T03:37:55.794Z,124.00
2019-06-26T03:38:55.786Z,128.00
2019-06-26T03:39:55.775Z,132.00
2019-06-26T03:40:55.769Z,140.00
2019-06-26T03:41:55.753Z,144.00
2019-06-26T03:42:55.747Z,152.00
2019-06-26T03:43:55.735Z,156.00
2019-06-26T03:44:55.721Z,164.00
2019-06-26T03:45:55.772Z,168.00
2019-06-26T03:46:55.694Z,176.00
2019-06-26T03:47:55.687Z,180.00
2019-06-26T03:48:55.675Z,188.00
2019-06-26T03:49:55.685Z,196.00
2019-06-26T03:50:55.669Z,204.00
2019-06-26T03:51:55.660Z,208.00
2019-06-26T03:52:55.671Z,212.00
2019-06-26T03:53:55.626Z,220.00
2019-06-26T03:54:55.610Z,224.00
2019-06-26T03:55:55.634Z,228.00
2019-06-26T03:56:55.585Z,232.00
2019-06-26T03:57:55.576Z,236.00
2019-06-26T03:58:55.578Z,244.00
2019-06-26T03:59:55.745Z,256.00
2019-06-26T04:00:55.605Z,264.00
2019-06-26T04:01:55.538Z,272.00
2019-06-26T04:02:55.535Z,280.00
2019-06-26T04:03:57.513Z,288.00
2019-06-26T04:04:55.527Z,300.00
2019-06-26T04:05:55.537Z,308.00
2019-06-26T04:06:55.478Z,320.00
2019-06-26T04:07:55.468Z,328.00
2019-06-26T04:08:55.463Z,340.00
2019-06-26T04:09:55.461Z,352.00
2019-06-26T04:10:55.432Z,360.00
2019-06-26T04:11:55.420Z,372.00
2019-06-26T04:12:55.410Z,384.00
2019-06-26T04:13:55.398Z,396.00
2019-06-26T04:14:55.391Z,408.00
2019-06-26T04:15:55.388Z,424.00
2019-06-26T04:16:55.364Z,436.00
2019-06-26T04:17:55.350Z,452.00
2019-06-26T04:18:55.341Z,456.00
2019-06-26T04:19:55.334Z,480.00
2019-06-26T04:20:55.324Z,504.00
2019-06-26T04:21:55.317Z,528.00
2019-06-26T04:22:55.302Z,552.00
2019-06-26T04:23:55.281Z,572.00
2019-06-26T04:24:55.278Z,592.00
2019-06-26T04:25:55.269Z,620.00
2019-06-26T04:26:55.255Z,648.00
2019-06-26T04:27:55.244Z,668.00
2019-06-26T04:28:55.286Z,700.00
2019-06-26T04:29:55.221Z,728.00
2019-06-26T04:30:55.217Z,756.00
2019-06-26T04:31:55.204Z,780.00
2019-06-26T04:32:55.193Z,804.00
2019-06-26T04:33:55.178Z,832.00
2019-06-26T04:34:55.175Z,856.00
2019-06-26T04:35:55.159Z,880.00
2019-06-26T04:36:55.147Z,896.00
2019-06-26T04:37:55.139Z,916.00
2019-06-26T04:38:55.138Z,948.00
2019-06-26T04:39:55.131Z,972.00
2019-06-26T04:40:55.109Z,992.00
2019-06-26T04:41:55.089Z,1020.00
2019-06-26T04:42:55.082Z,1044.00
2019-06-26T04:43:55.090Z,1064.00
2019-06-26T04:44:55.056Z,1092.00
2019-06-26T04:45:58.406Z,1116.00
2019-06-26T04:46:55.041Z,1144.00
2019-06-26T04:47:55.037Z,1172.00
2019-06-26T04:48:55.019Z,1196.00
2019-06-26T04:49:55.018Z,1228.00
2019-06-26T04:50:54.993Z,1256.00
2019-06-26T04:51:54.988Z,1288.00
2019-06-26T04:52:54.979Z,1320.00
2019-06-26T04:53:55.811Z,1344.00
2019-06-26T04:54:54.957Z,1376.00
2019-06-26T04:55:54.947Z,1412.00
2019-06-26T04:56:54.936Z,1436.00
2019-06-26T04:57:54.929Z,1468.00
2019-06-26T04:58:54.912Z,1496.00
2019-06-26T04:59:54.912Z,1520.00
2019-06-26T05:00:54.894Z,1548.00
2019-06-26T05:01:54.890Z,1572.00
2019-06-26T05:02:54.873Z,1592.00
2019-06-26T05:03:54.866Z,1632.00
2019-06-26T05:04:54.856Z,1660.00
2019-06-26T05:05:54.847Z,1696.00
2019-06-26T05:06:54.844Z,1724.00
2019-06-26T05:07:54.842Z,1756.00
2019-06-26T05:08:54.819Z,1784.00
2019-06-26T05:09:54.811Z,1808.00
2019-06-26T05:10:54.797Z,1836.00
2019-06-26T05:11:54.805Z,1868.00
2019-06-26T05:12:54.781Z,1900.00
2019-06-26T05:13:54.770Z,1928.00
2019-06-26T05:14:54.759Z,1956.00
2019-06-26T05:15:54.751Z,1984.00
2019-06-26T05:16:54.747Z,2012.00
2019-06-26T05:17:54.734Z,2048.00
2019-06-26T05:18:54.719Z,2076.00
2019-06-26T05:19:54.713Z,2104.00
2019-06-26T05:20:54.706Z,2136.00
2019-06-26T05:21:54.697Z,2164.00
2019-06-26T05:22:54.830Z,2196.00
2019-06-26T05:23:54.682Z,2232.00
2019-06-26T05:24:54.704Z,2268.00
2019-06-26T05:25:54.714Z,2304.00
2019-06-26T05:26:54.703Z,2340.00
2019-06-26T05:27:54.657Z,2376.00
2019-06-26T05:28:54.634Z,2412.00
2019-06-26T05:29:54.663Z,2444.00
2019-06-26T05:30:54.645Z,2472.00
2019-06-26T05:31:54.605Z,2496.00
2019-06-26T05:32:54.603Z,2524.00
2019-06-26T05:33:54.594Z,2552.00
2019-06-26T05:34:54.635Z,2588.00
2019-06-26T05:35:54.582Z,2620.00
2019-06-26T05:36:54.584Z,2652.00
2019-06-26T05:37:54.584Z,2684.00
2019-06-26T05:38:54.551Z,2728.00
2019-06-26T05:39:54.905Z,2760.00
2019-06-26T05:40:54.545Z,2796.00
2019-06-26T05:41:54.527Z,2824.00
2019-06-26T05:42:54.568Z,2856.00
2019-06-26T05:43:54.509Z,2888.00
2019-06-26T05:44:54.513Z,2924.00
2019-06-26T05:45:54.515Z,2952.00
2019-06-26T05:46:55.077Z,2976.00
2019-06-26T05:47:54.486Z,3008.00
2019-06-26T05:48:54.481Z,3036.00
2019-06-26T05:49:54.470Z,3068.00
2019-06-26T05:50:54.463Z,3088.00
2019-06-26T05:51:54.457Z,3120.00
2019-06-26T05:52:54.452Z,3164.00
2019-06-26T05:53:54.443Z,3200.00
2019-06-26T05:54:54.515Z,3240.00
2019-06-26T05:55:54.486Z,3280.00
2019-06-26T05:56:54.423Z,3320.00
2019-06-26T05:57:54.419Z,3340.00
2019-06-26T05:58:54.414Z,3368.00
2019-06-26T05:59:54.394Z,3384.00
2019-06-26T06:00:54.391Z,3404.00
2019-06-26T06:01:54.384Z,3420.00
2019-06-26T06:02:54.377Z,3444.00
2019-06-26T06:03:54.378Z,3464.00
2019-06-26T06:04:54.365Z,3480.00
2019-06-26T06:05:54.357Z,3500.00
2019-06-26T06:06:54.348Z,3516.00
2019-06-26T06:07:54.342Z,3536.00
2019-06-26T06:08:54.341Z,3556.00
2019-06-26T06:09:54.353Z,3568.00
2019-06-26T06:10:57.998Z,3584.00
2019-06-26T06:11:54.344Z,3608.00
2019-06-26T06:12:54.309Z,3624.00
2019-06-26T06:13:54.307Z,3648.00
2019-06-26T06:14:54.302Z,3668.00
2019-06-26T06:15:54.299Z,3692.00
2019-06-26T06:16:54.291Z,3712.00
2019-06-26T06:17:54.285Z,3736.00
2019-06-26T06:18:54.280Z,3756.00
2019-06-26T06:19:54.277Z,3772.00
2019-06-26T06:20:54.291Z,3792.00
2019-06-26T06:21:54.258Z,3808.00
2019-06-26T06:22:54.253Z,3832.00
2019-06-26T06:23:54.253Z,3852.00
2019-06-26T06:24:54.245Z,3880.00
2019-06-26T06:25:54.238Z,3916.00
2019-06-26T06:26:54.226Z,3944.00
2019-06-26T06:27:54.245Z,3960.00
2019-06-26T06:28:54.221Z,3908.00
2019-06-26T06:29:54.234Z,4000.00
2019-06-26T06:30:54.209Z,4024.00
2019-06-26T06:31:54.203Z,4056.00
2019-06-26T06:32:54.195Z,4076.00
2019-06-26T06:33:54.189Z,4096.00
2019-06-26T06:34:54.186Z,4124.00
2019-06-26T06:35:54.182Z,4148.00
2019-06-26T06:36:54.175Z,4176.00
2019-06-26T06:37:54.187Z,4216.00
2019-06-26T06:38:54.165Z,4240.00
2019-06-26T06:39:54.159Z,4268.00
2019-06-26T06:40:54.174Z,4304.00
2019-06-26T06:41:54.177Z,4336.00
2019-06-26T06:42:54.152Z,4372.00
2019-06-26T06:43:55.120Z,4404.00
2019-06-26T06:44:54.134Z,4444.00
2019-06-26T06:45:54.132Z,4488.00
2019-06-26T06:47:03.745Z,4532.00
2019-06-26T06:47:54.124Z,4568.00
2019-06-26T06:48:54.115Z,4604.00
2019-06-26T06:49:54.111Z,4648.00
2019-06-26T06:50:54.106Z,4688.00
2019-06-26T06:51:54.104Z,4736.00
2019-06-26T06:52:54.101Z,4780.00
2019-06-26T06:53:54.089Z,4820.00
2019-06-26T06:54:54.088Z,4864.00
2019-06-26T06:55:54.088Z,4912.00
2019-06-26T06:56:54.075Z,4968.00
2019-06-26T06:57:54.073Z,5028.00
2019-06-26T06:58:54.066Z,5104.00
2019-06-26T06:59:54.061Z,5208.00
2019-06-26T07:00:54.057Z,5308.00
2019-06-26T07:01:54.061Z,5384.00
2019-06-26T07:02:54.062Z,5432.00
2019-06-26T07:03:54.049Z,5480.00
2019-06-26T07:04:54.053Z,5520.00
2019-06-26T07:05:54.037Z,5556.00
2019-06-26T07:06:54.035Z,5592.00
2019-06-26T07:07:54.025Z,5620.00
2019-06-26T07:08:54.023Z,5652.00
2019-06-26T07:09:54.019Z,5696.00
2019-06-26T07:10:54.034Z,5720.00
2019-06-26T07:11:54.006Z,5760.00
2019-06-26T07:12:54.002Z,5792.00
2019-06-26T07:13:54.008Z,5828.00
2019-06-26T07:14:53.997Z,5864.00
2019-06-26T07:15:53.994Z,5900.00
2019-06-26T07:16:53.991Z,5932.00
2019-06-26T07:17:53.987Z,5956.00
2019-06-26T07:18:53.983Z,5996.00
2019-06-26T07:19:53.986Z,6000.00
2019-06-26T07:20:53.976Z,6024.00
2019-06-26T07:21:53.988Z,6076.00
2019-06-26T07:22:53.971Z,6116.00
2019-06-26T07:23:53.968Z,6160.00
2019-06-26T07:24:53.976Z,6188.00
2019-06-26T07:25:53.960Z,6240.00
2019-06-26T07:26:54.248Z,6296.00
2019-06-26T07:27:56.017Z,6356.00
2019-06-26T07:28:54.754Z,6412.00
2019-06-26T07:29:54.249Z,6468.00
2019-06-26T07:30:53.946Z,6524.00
2019-06-26T07:31:57.362Z,6588.00
2019-06-26T07:33:56.006Z,6676.00
2019-06-26T07:34:54.463Z,6740.00
2019-06-26T07:35:53.931Z,6776.00
2019-06-26T07:36:54.123Z,6816.00
2019-06-26T07:37:53.930Z,6856.00
2019-06-26T07:38:54.032Z,6904.00
2019-06-26T07:39:57.744Z,6948.00
2019-06-26T07:40:53.920Z,7004.00
2019-06-26T07:41:53.925Z,7052.00
2019-06-26T07:42:53.910Z,7088.00
2019-06-26T07:43:53.912Z,7128.00
2019-06-26T07:44:53.909Z,7184.00
2019-06-26T07:45:53.904Z,7244.00
2019-06-26T07:46:53.908Z,7280.00
2019-06-26T07:47:53.905Z,7328.00
2019-06-26T07:48:57.363Z,7376.00
2019-06-26T07:49:53.902Z,7416.00
2019-06-26T07:50:53.899Z,7464.00
2019-06-26T07:51:53.900Z,7508.00
2019-06-26T07:52:53.894Z,7552.00
2019-06-26T07:53:53.952Z,7576.00
2019-06-26T07:54:53.892Z,7628.00
2019-06-26T07:55:53.891Z,7700.00
2019-06-26T07:56:53.886Z,7752.00
2019-06-26T07:57:53.886Z,7808.00
2019-06-26T07:58:53.886Z,7856.00
2019-06-26T07:59:53.882Z,7900.00
2019-06-26T08:00:53.881Z,7932.00
2019-06-26T08:01:53.882Z,7968.00
2019-06-26T08:02:53.899Z,7988.00
2019-06-26T08:03:53.885Z,7992.00
2019-06-26T08:04:53.878Z,8008.00
2019-06-26T08:05:53.877Z,8016.00
2019-06-26T08:06:53.875Z,8020.00
2019-06-26T08:07:53.873Z,8032.00
2019-06-26T08:08:53.878Z,7972.00
2019-06-26T08:09:53.894Z,7992.00
2019-06-26T08:10:53.870Z,8012.00
2019-06-26T08:11:53.870Z,8012.00
2019-06-26T08:12:53.873Z,8004.00
2019-06-26T08:13:53.872Z,8024.00
2019-06-26T08:14:53.869Z,8048.00
2019-06-26T08:15:53.866Z,8076.00
2019-06-26T08:16:53.873Z,8116.00
2019-06-26T08:18:00.490Z,8132.00
2019-06-26T08:18:53.866Z,8180.00
2019-06-26T08:19:53.865Z,8216.00
2019-06-26T08:21:11.033Z,8252.00
2019-06-26T08:21:53.869Z,8276.00
2019-06-26T08:22:53.862Z,8316.00
2019-06-26T08:23:53.862Z,8332.00
2019-06-26T08:24:53.868Z,8356.00
2019-06-26T08:25:53.863Z,8372.00
2019-06-26T08:26:53.870Z,8392.00
2019-06-26T08:27:53.865Z,8404.00
2019-06-26T08:28:53.859Z,8392.00
2019-06-26T08:29:53.865Z,8400.00
2019-06-26T08:30:53.864Z,8404.00
2019-06-26T08:31:53.859Z,8416.00
2019-06-26T08:32:53.866Z,8420.00
2019-06-26T08:33:53.889Z,8404.00
2019-06-26T08:34:53.879Z,8424.00
2019-06-26T08:35:53.877Z,8420.00
2019-06-26T08:36:53.858Z,8432.00
2019-06-26T08:38:08.914Z,8412.00
2019-06-26T08:38:53.863Z,8420.00
2019-06-26T08:39:53.889Z,8424.00
2019-06-26T08:40:53.861Z,8440.00
2019-06-26T08:41:53.866Z,8432.00
2019-06-26T08:42:53.884Z,8416.00
2019-06-26T08:43:53.867Z,8404.00
2019-06-26T08:44:53.883Z,8400.00
2019-06-26T08:45:53.881Z,8372.00
2019-06-26T08:46:53.884Z,8368.00
2019-06-26T08:47:53.977Z,8352.00
2019-06-26T08:48:53.896Z,8348.00
2019-06-26T08:49:53.877Z,8344.00
2019-06-26T08:50:53.868Z,8340.00
2019-06-26T08:51:53.900Z,8316.00
2019-06-26T08:52:53.889Z,8292.00
2019-06-26T08:53:53.871Z,8284.00
2019-06-26T08:54:53.872Z,8300.00
2019-06-26T08:55:53.883Z,8272.00
2019-06-26T08:56:53.881Z,8260.00
2019-06-26T08:57:53.879Z,8244.00
2019-06-26T08:58:53.880Z,8228.00
2019-06-26T08:59:53.890Z,8196.00
2019-06-26T09:00:53.880Z,8160.00
2019-06-26T09:01:53.895Z,8144.00
2019-06-26T09:02:53.879Z,8116.00
2019-06-26T09:03:53.883Z,8104.00
2019-06-26T09:04:53.886Z,8088.00
2019-06-26T09:05:53.888Z,8064.00
2019-06-26T09:06:53.886Z,8040.00
2019-06-26T09:07:53.914Z,8016.00
2019-06-26T09:08:53.884Z,8012.00
2019-06-26T09:09:53.884Z,7976.00
2019-06-26T09:10:53.887Z,7940.00
2019-06-26T09:11:53.891Z,7920.00
2019-06-26T09:12:53.893Z,7904.00
2019-06-26T09:13:53.894Z,7872.00
2019-06-26T09:14:53.901Z,7840.00
2019-06-26T09:15:53.901Z,7792.00
2019-06-26T09:16:53.898Z,7792.00
2019-06-26T09:17:53.925Z,7764.00
2019-06-26T09:18:53.902Z,7736.00
2019-06-26T09:19:53.901Z,7724.00
2019-06-26T09:20:53.908Z,7716.00
2019-06-26T09:21:53.908Z,7700.00
2019-06-26T09:22:53.910Z,7680.00
2019-06-26T09:23:53.910Z,7656.00
2019-06-26T09:24:53.918Z,7636.00
2019-06-26T09:25:53.919Z,7628.00
2019-06-26T09:26:53.911Z,7608.00
2019-06-26T09:27:53.921Z,7592.00
2019-06-26T09:28:53.924Z,7576.00
2019-06-26T09:29:53.924Z,7560.00
2019-06-26T09:30:53.923Z,7548.00
2019-06-26T09:31:53.926Z,7532.00
2019-06-26T09:32:53.932Z,7512.00
2019-06-26T09:33:53.934Z,7492.00
2019-06-26T09:34:53.946Z,7468.00
2019-06-26T09:35:53.935Z,7452.00
2019-06-26T09:36:53.943Z,7440.00
2019-06-26T09:37:53.946Z,7440.00
2019-06-26T09:38:57.760Z,7420.00
2019-06-26T09:39:53.946Z,7412.00
2019-06-26T09:40:53.953Z,7400.00
2019-06-26T09:41:53.954Z,7388.00
2019-06-26T09:42:53.956Z,7384.00
2019-06-26T09:43:53.953Z,7372.00
2019-06-26T09:44:53.963Z,7360.00
2019-06-26T09:45:53.966Z,7348.00
2019-06-26T09:46:53.967Z,7344.00
2019-06-26T09:47:53.974Z,7332.00
2019-06-26T09:48:53.981Z,7328.00
2019-06-26T09:49:53.981Z,7300.00
2019-06-26T09:50:53.990Z,7296.00
2019-06-26T09:51:53.986Z,7292.00
2019-06-26T09:52:53.990Z,7288.00
2019-06-26T09:53:53.993Z,7280.00
2019-06-26T09:54:53.996Z,7268.00
2019-06-26T09:55:54.004Z,7252.00
2019-06-26T09:56:53.999Z,7248.00
2019-06-26T09:57:54.014Z,7240.00
2019-06-26T09:58:54.010Z,7228.00
2019-06-26T09:59:54.015Z,7220.00
2019-06-26T10:00:54.023Z,7204.00
2019-06-26T10:01:54.021Z,7224.00
2019-06-26T10:02:54.026Z,7208.00
2019-06-26T10:03:54.034Z,7192.00
2019-06-26T10:04:54.065Z,7180.00
2019-06-26T10:05:54.037Z,7168.00
2019-06-26T10:06:54.042Z,7148.00
2019-06-26T10:07:54.041Z,7132.00
2019-06-26T10:08:54.712Z,7124.00
2019-06-26T10:09:54.049Z,7116.00
2019-06-26T10:10:54.055Z,7096.00
2019-06-26T10:11:54.060Z,7080.00
2019-06-26T10:12:54.063Z,7084.00
2019-06-26T10:13:54.064Z,7088.00
2019-06-26T10:14:54.063Z,7088.00
2019-06-26T10:15:54.076Z,7088.00
2019-06-26T10:16:54.076Z,7080.00
2019-06-26T10:17:54.078Z,7080.00
2019-06-26T10:19:08.875Z,7068.00
2019-06-26T10:19:54.326Z,7056.00
2019-06-26T10:20:54.098Z,7048.00
2019-06-26T10:21:54.104Z,7052.00
2019-06-26T10:22:54.099Z,7060.00
2019-06-26T10:23:54.108Z,7068.00
2019-06-26T10:24:54.110Z,7068.00
2019-06-26T10:25:54.119Z,7056.00
2019-06-26T10:26:54.123Z,7056.00
2019-06-26T10:27:54.124Z,7040.00
2019-06-26T10:28:54.127Z,7068.00
2019-06-26T10:29:54.134Z,7048.00
2019-06-26T10:30:54.139Z,7064.00
2019-06-26T10:31:54.147Z,7076.00
2019-06-26T10:32:54.149Z,7048.00
2019-06-26T10:33:54.151Z,7048.00
2019-06-26T10:34:54.157Z,7044.00
2019-06-26T10:35:54.163Z,7064.00
2019-06-26T10:36:54.167Z,7060.00
2019-06-26T10:37:54.172Z,7068.00
2019-06-26T10:38:54.188Z,7068.00
2019-06-26T10:39:54.194Z,7084.00
2019-06-26T10:40:54.187Z,7040.00
2019-06-26T10:41:55.182Z,7036.00
2019-06-26T10:42:54.195Z,7048.00
2019-06-26T10:43:54.202Z,7040.00
2019-06-26T10:44:54.213Z,6972.00
2019-06-26T10:45:54.211Z,6972.00
2019-06-26T10:46:54.219Z,7024.00
2019-06-26T10:47:54.226Z,7060.00
2019-06-26T10:48:54.230Z,7040.00
2019-06-26T10:49:54.243Z,7056.00
2019-06-26T10:50:58.529Z,7028.00
2019-06-26T10:51:54.244Z,7008.00
2019-06-26T10:52:54.251Z,7016.00
2019-06-26T10:53:54.254Z,7012.00
2019-06-26T10:54:54.259Z,7008.00
2019-06-26T10:55:54.270Z,7024.00
2019-06-26T10:56:54.273Z,7056.00
2019-06-26T10:57:54.280Z,7048.00
2019-06-26T10:58:54.283Z,7080.00
2019-06-26T10:59:55.801Z,7076.00
2019-06-26T11:00:54.295Z,7068.00
2019-06-26T11:01:54.308Z,7052.00
2019-06-26T11:02:54.339Z,7080.00
2019-06-26T11:03:54.312Z,7092.00
2019-06-26T11:04:54.313Z,7100.00
2019-06-26T11:05:54.325Z,7128.00
2019-06-26T11:06:54.331Z,7132.00
2019-06-26T11:07:54.332Z,7112.00
2019-06-26T11:08:54.350Z,7140.00
2019-06-26T11:09:54.349Z,7120.00
2019-06-26T11:10:54.353Z,7112.00
2019-06-26T11:11:54.384Z,7120.00
2019-06-26T11:12:54.366Z,7092.00
2019-06-26T11:13:54.372Z,7048.00
2019-06-26T11:14:54.378Z,7068.00
2019-06-26T11:15:54.387Z,7144.00
2019-06-26T11:16:54.391Z,7156.00
2019-06-26T11:17:54.398Z,7204.00
2019-06-26T11:18:54.402Z,7216.00
2019-06-26T11:19:55.700Z,7224.00
2019-06-26T11:20:54.424Z,7220.00
2019-06-26T11:21:54.425Z,7252.00
2019-06-26T11:22:54.427Z,7260.00
2019-06-26T11:23:54.435Z,7264.00
2019-06-26T11:24:54.441Z,7276.00
2019-06-26T11:25:54.455Z,7324.00
2019-06-26T11:26:54.456Z,7360.00
2019-06-26T11:27:54.461Z,7400.00
2019-06-26T11:28:54.470Z,7428.00
2019-06-26T11:29:54.485Z,7416.00
2019-06-26T11:30:54.483Z,7408.00
2019-06-26T11:31:54.491Z,7400.00
2019-06-26T11:32:54.498Z,7436.00
2019-06-26T11:33:54.502Z,7484.00
2019-06-26T11:34:54.509Z,7528.00
2019-06-26T11:35:54.515Z,7560.00
2019-06-26T11:37:03.589Z,7580.00
2019-06-26T11:37:54.529Z,7624.00
2019-06-26T11:38:54.566Z,7624.00
2019-06-26T11:39:54.543Z,7632.00
2019-06-26T11:40:54.549Z,7684.00
2019-06-26T11:41:54.555Z,7764.00
2019-06-26T11:42:54.567Z,7864.00
2019-06-26T11:43:54.580Z,7912.00
2019-06-26T11:44:54.584Z,7932.00
2019-06-26T11:45:54.624Z,7964.00
2019-06-26T11:46:54.594Z,8028.00
2019-06-26T11:47:54.601Z,8076.00
2019-06-26T11:48:54.609Z,8124.00
2019-06-26T11:49:59.898Z,8160.00
2019-06-26T11:50:54.631Z,8208.00
2019-06-26T11:51:54.635Z,8252.00
2019-06-26T11:52:54.681Z,8308.00
2019-06-26T11:53:54.646Z,8368.00
2019-06-26T11:55:02.603Z,8440.00
2019-06-26T11:55:54.661Z,8468.00
2019-06-26T11:56:54.664Z,8516.00
2019-06-26T11:57:54.675Z,8576.00
2019-06-26T11:58:54.686Z,8624.00
2019-06-26T11:59:54.693Z,8692.00
2019-06-26T12:00:54.765Z,8728.00
2019-06-26T12:01:54.713Z,8796.00
2019-06-26T12:02:54.713Z,8916.00
2019-06-26T12:03:54.721Z,9024.00
2019-06-26T12:04:54.732Z,9136.00
2019-06-26T12:06:07.635Z,9236.00
2019-06-26T12:06:54.750Z,9340.00
2019-06-26T12:07:54.830Z,9452.00
2019-06-26T12:08:54.771Z,9536.00
2019-06-26T12:09:54.871Z,9652.00
2019-06-26T12:10:54.782Z,9788.00
2019-06-26T12:11:54.796Z,9912.00
2019-06-26T12:12:54.814Z,10036.00
2019-06-26T12:13:54.815Z,10224.00
2019-06-26T12:14:54.821Z,10408.00
2019-06-26T12:15:54.832Z,10568.00
2019-06-26T12:16:54.848Z,10756.00
2019-06-26T12:17:54.849Z,10920.00
2019-06-26T12:18:54.861Z,11072.00
2019-06-26T12:19:54.871Z,11320.00
2019-06-26T12:20:54.897Z,11636.00
2019-06-26T12:21:54.890Z,11924.00
2019-06-26T12:22:54.901Z,12156.00
2019-06-26T12:23:54.910Z,12360.00
2019-06-26T12:24:55.103Z,12524.00
2019-06-26T12:25:54.927Z,12720.00
2019-06-26T12:26:54.940Z,12944.00